Portada
METAR-TAF:

METAR-TAF

Aeroports :

Dehradun, Índia

latitud: 30-11-23N, longitud: 78-10-49E, altitud: 558 m

METAR: manca

Hora: 18:14 (12:44 UTC)

Pronòstic

L'informe es va fer fa 1 hora i 44 minuts, a les 11:00 UTC
Pronòstic vàlid del 02 a les 12 UTC al 02 a les 21 UTC
Vent 4 kt del Nord-Est
Visibilitat: 3000 m
Cel ennuvolat a una alçada de 2000 ft
Cel cobert a una alçada de 6000 ft
boirina, pluja
Evolucionant progressivament
l' 02 a les 15 UTC al 02 a les 17 UTC
Visibilitat: 1200 m
boirina, Boira superficial

TAF: VIDN 021100Z 0212/0221 05004KT 3000 BR -RA BKN020 OVC060 BECMG 0215/0217 1200 BR MIFG

Observacions i pronòstics meteorològics de més de 4000 aeroports (METAR i TAF).

Les estacions disponibles són els punts grocs i vermells al mapa.

Posi el ratolí al punt desitjat per veure el nom de l'estació.

Feu clic per veure les observacions i els pronòstics meteorològics.

Per canviar el mapa: feu clic els botons verds amb una creu de color negre per apropar; al botó verd amb un guió per allunyar la imatge; o en les fletxes verdes per a mapes adjacents.


METAR-TAF: